Time,TemperatureF,DewpointF,PressureIn,WindDirection,WindDirectionDegrees,WindSpeedMPH,WindSpeedGustMPH,Humidity,HourlyPrecipIn,Conditions,Clouds,dailyrainin,SoftwareType,DateUTC
2013-03-28 00:00:00,52.9,48.8,29.80,ENE,78,2.0,7.0,86,0.00,,,0.00,VWS V14.01,2013-03-27 23:00:00,
2013-03-28 00:01:00,53.9,49.5,29.80,ESE,119,5.0,8.0,85,0.00,,,0.01,VWS V14.01,2013-03-27 23:01:00,
2013-03-28 00:06:00,53.9,49.2,29.80,ESE,112,3.0,8.0,84,0.00,,,0.01,VWS V14.01,2013-03-27 23:06:00,
2013-03-28 00:10:00,52.7,49.0,29.80,ENE,78,3.0,4.0,87,0.00,,,0.00,VWS V14.01,2013-03-27 23:10:00,
2013-03-28 00:11:00,53.9,49.5,29.80,ESE,111,1.0,5.0,85,0.00,,,0.00,VWS V14.01,2013-03-27 23:11:00,
2013-03-28 00:16:00,54.0,49.6,29.81,ESE,111,0.0,5.0,85,0.00,,,0.00,VWS V14.01,2013-03-27 23:16:00,
2013-03-28 00:20:00,52.7,49.0,29.80,ENE,64,2.0,7.0,87,0.00,,,0.00,VWS V14.01,2013-03-27 23:20:00,
2013-03-28 00:21:00,53.9,49.5,29.81,ESE,111,1.0,2.0,85,0.00,,,0.00,VWS V14.01,2013-03-27 23:21:00,
2013-03-28 00:26:00,53.7,49.3,29.81,ESE,111,0.0,2.0,85,0.00,,,0.00,VWS V14.01,2013-03-27 23:26:00,
2013-03-28 00:30:00,52.6,48.8,29.79,ENE,64,1.0,5.0,87,0.00,,,0.00,VWS V14.01,2013-03-27 23:30:00,
2013-03-28 00:31:00,53.7,49.3,29.81,ESE,111,0.0,0.0,85,0.00,,,0.00,VWS V14.01,2013-03-27 23:31:00,
2013-03-28 00:36:00,53.6,49.2,29.81,ESE,111,0.0,0.0,85,0.00,,,0.00,VWS V14.01,2013-03-27 23:36:00,
2013-03-28 00:40:00,52.5,48.8,29.79,ENE,64,3.0,3.0,87,0.00,,,0.00,VWS V14.01,2013-03-27 23:40:00,
2013-03-28 00:41:00,53.5,49.1,29.80,ESE,111,0.0,1.0,85,0.00,,,0.00,VWS V14.01,2013-03-27 23:41:00,
2013-03-28 00:46:00,53.4,49.0,29.80,ESE,111,0.0,1.0,85,0.00,,,0.00,VWS V14.01,2013-03-27 23:46:00,
2013-03-28 00:50:00,52.5,49.0,29.79,ENE,64,4.0,5.0,88,0.00,,,0.00,VWS V14.01,2013-03-27 23:50:00,
2013-03-28 00:51:00,53.2,49.1,29.80,ESE,111,0.0,2.0,86,0.00,,,0.00,VWS V14.01,2013-03-27 23:51:00,
2013-03-28 00:56:00,53.1,49.0,29.80,ESE,111,3.0,4.0,86,0.00,,,0.00,VWS V14.01,2013-03-27 23:56:00,
2013-03-28 01:00:00,52.6,49.2,29.79,ENE,64,1.0,4.0,88,0.00,,,0.00,VWS V14.01,2013-03-28 00:00:00,
2013-03-28 01:01:00,53.0,48.9,29.80,East,94,5.0,6.0,86,0.00,,,0.00,VWS V14.01,2013-03-28 00:01:00,
2013-03-28 01:06:00,52.9,48.8,29.80,ENE,78,4.0,7.0,86,0.00,,,0.00,VWS V14.01,2013-03-28 00:06:00,
2013-03-28 01:10:00,52.9,49.1,29.79,ENE,64,0.0,2.0,87,0.00,,,0.00,VWS V14.01,2013-03-28 00:10:00,
2013-03-28 01:11:00,52.8,48.7,29.80,ENE,78,1.0,4.0,86,0.00,,,0.00,VWS V14.01,2013-03-28 00:11:00,
2013-03-28 01:16:00,52.8,49.0,29.80,ENE,78,4.0,4.0,87,0.00,,,0.00,VWS V14.01,2013-03-28 00:16:00,
2013-03-28 01:20:00,53.2,49.4,29.79,ENE,64,2.0,2.0,87,0.00,,,0.00,VWS V14.01,2013-03-28 00:20:00,
2013-03-28 01:21:00,52.7,49.0,29.80,ENE,74,5.0,7.0,87,0.00,,,0.00,VWS V14.01,2013-03-28 00:21:00,
2013-03-28 01:26:00,52.7,49.0,29.80,ENE,64,3.0,7.0,87,0.00,,,0.00,VWS V14.01,2013-03-28 00:26:00,
2013-03-28 01:30:00,53.4,49.6,29.80,ENE,64,0.0,3.0,87,0.00,,,0.00,VWS V14.01,2013-03-28 00:30:00,
2013-03-28 01:31:00,52.7,49.0,29.80,ENE,64,1.0,5.0,87,0.00,,,0.00,VWS V14.01,2013-03-28 00:31:00,
2013-03-28 01:36:00,52.6,48.8,29.79,ENE,64,3.0,5.0,87,0.00,,,0.00,VWS V14.01,2013-03-28 00:36:00,
2013-03-28 01:40:00,53.5,49.4,29.79,ENE,64,2.0,4.0,86,0.00,,,0.00,VWS V14.01,2013-03-28 00:40:00,
2013-03-28 01:41:00,52.6,48.8,29.79,ENE,64,1.0,2.0,87,0.00,,,0.00,VWS V14.01,2013-03-28 00:41:00,
2013-03-28 01:46:00,52.5,48.8,29.79,ENE,64,2.0,3.0,87,0.00,,,0.00,VWS V14.01,2013-03-28 00:46:00,
2013-03-28 01:50:00,53.5,49.1,29.79,ENE,64,2.0,5.0,85,0.00,,,0.00,VWS V14.01,2013-03-28 00:50:00,
2013-03-28 01:51:00,52.5,49.0,29.79,ENE,64,4.0,4.0,88,0.00,,,0.00,VWS V14.01,2013-03-28 00:51:00,
2013-03-28 01:56:00,52.5,49.0,29.79,ENE,64,2.0,5.0,88,0.00,,,0.00,VWS V14.01,2013-03-28 00:56:00,
2013-03-28 02:00:00,53.4,49.0,29.79,ENE,64,3.0,5.0,85,0.00,,,0.00,VWS V14.01,2013-03-28 01:00:00,
2013-03-28 02:01:00,52.5,49.0,29.79,ENE,64,2.0,4.0,88,0.00,,,0.00,VWS V14.01,2013-03-28 01:01:00,
2013-03-28 02:06:00,52.5,49.0,29.79,ENE,64,2.0,4.0,88,0.00,,,0.00,VWS V14.01,2013-03-28 01:06:00,
2013-03-28 02:10:00,53.3,48.9,29.79,ENE,64,2.0,5.0,85,0.00,,,0.00,VWS V14.01,2013-03-28 01:10:00,
2013-03-28 02:11:00,52.7,49.2,29.79,ENE,64,0.0,1.0,88,0.00,,,0.00,VWS V14.01,2013-03-28 01:11:00,
2013-03-28 02:16:00,52.9,49.1,29.79,ENE,64,0.0,2.0,87,0.00,,,0.00,VWS V14.01,2013-03-28 01:16:00,
2013-03-28 02:20:00,53.0,49.2,29.79,ENE,64,0.0,0.0,87,0.00,,,0.00,VWS V14.01,2013-03-28 01:20:00,
2013-03-28 02:26:00,53.1,49.3,29.79,ENE,64,0.0,2.0,87,0.00,,,0.00,VWS V14.01,2013-03-28 01:26:00,
2013-03-28 02:30:00,53.3,49.5,29.79,ENE,64,2.0,3.0,87,0.00,,,0.00,VWS V14.01,2013-03-28 01:30:00,
2013-03-28 02:36:00,53.3,49.5,29.80,ENE,64,0.0,3.0,87,0.00,,,0.00,VWS V14.01,2013-03-28 01:36:00,
2013-03-28 02:40:00,53.0,48.9,29.79,ENE,64,3.0,5.0,86,0.00,,,0.00,VWS V14.01,2013-03-28 01:40:00,
2013-03-28 02:41:00,53.4,49.3,29.80,ENE,64,2.0,2.0,86,0.00,,,0.00,VWS V14.01,2013-03-28 01:41:00,
2013-03-28 02:45:00,53.4,49.3,29.79,ENE,64,1.0,4.0,86,0.00,,,0.00,VWS V14.01,2013-03-28 01:45:00,
2013-03-28 02:50:00,53.2,48.8,29.79,ENE,66,3.0,5.0,85,0.00,,,0.00,VWS V14.01,2013-03-28 01:50:00,
2013-03-28 02:51:00,53.5,49.4,29.79,ENE,64,1.0,4.0,86,0.00,,,0.00,VWS V14.01,2013-03-28 01:51:00,
2013-03-28 02:56:00,53.5,49.1,29.79,ENE,64,1.0,5.0,85,0.00,,,0.00,VWS V14.01,2013-03-28 01:56:00,
2013-03-28 03:00:00,53.4,49.0,29.79,ENE,76,2.0,8.0,85,0.00,,,0.00,VWS V14.01,2013-03-28 02:00:00,
2013-03-28 03:01:00,53.4,49.0,29.79,ENE,64,2.0,3.0,85,0.00,,,0.00,VWS V14.01,2013-03-28 02:01:00,
2013-03-28 03:06:00,53.4,49.0,29.79,ENE,64,3.0,5.0,85,0.00,,,0.00,VWS V14.01,2013-03-28 02:06:00,
2013-03-28 03:10:00,53.4,49.0,29.79,ENE,76,0.0,3.0,85,0.00,,,0.00,VWS V14.01,2013-03-28 02:10:00,
2013-03-28 03:11:00,53.3,48.9,29.79,ENE,64,2.0,5.0,85,0.00,,,0.00,VWS V14.01,2013-03-28 02:11:00,
2013-03-28 03:16:00,53.3,48.9,29.79,ENE,64,0.0,5.0,85,0.00,,,0.00,VWS V14.01,2013-03-28 02:16:00,
2013-03-28 03:20:00,53.3,48.9,29.79,ENE,76,0.0,0.0,85,0.00,,,0.00,VWS V14.01,2013-03-28 02:20:00,
2013-03-28 03:21:00,53.2,48.8,29.79,ENE,64,0.0,2.0,85,0.00,,,0.00,VWS V14.01,2013-03-28 02:21:00,
2013-03-28 03:25:00,53.1,48.7,29.79,ENE,64,0.0,2.0,85,0.00,,,0.00,VWS V14.01,2013-03-28 02:25:00,
2013-03-28 03:30:00,53.1,48.7,29.79,ENE,77,0.0,1.0,85,0.00,,,0.00,VWS V14.01,2013-03-28 02:30:00,
2013-03-28 03:31:00,53.1,49.0,29.80,ENE,64,0.0,0.0,86,0.00,,,0.00,VWS V14.01,2013-03-28 02:31:00,
2013-03-28 03:36:00,53.1,49.0,29.80,ENE,64,0.0,0.0,86,0.00,,,0.00,VWS V14.01,2013-03-28 02:36:00,
2013-03-28 03:40:00,52.8,48.7,29.79,ENE,76,1.0,2.0,86,0.00,,,0.00,VWS V14.01,2013-03-28 02:40:00,
2013-03-28 03:41:00,53.0,48.9,29.79,ENE,64,4.0,4.0,86,0.00,,,0.00,VWS V14.01,2013-03-28 02:41:00,
2013-03-28 03:46:00,53.0,48.9,29.79,ENE,64,2.0,5.0,86,0.00,,,0.00,VWS V14.01,2013-03-28 02:46:00,
2013-03-28 03:50:00,52.6,48.8,29.79,ENE,76,2.0,4.0,87,0.00,,,0.00,VWS V14.01,2013-03-28 02:50:00,
2013-03-28 03:51:00,53.1,49.0,29.79,ENE,64,4.0,5.0,86,0.00,,,0.00,VWS V14.01,2013-03-28 02:51:00,
2013-03-28 03:56:00,53.2,48.8,29.79,ENE,66,2.0,5.0,85,0.00,,,0.00,VWS V14.01,2013-03-28 02:56:00,
2013-03-28 04:00:00,52.6,49.2,29.79,ENE,76,3.0,3.0,88,0.00,,,0.00,VWS V14.01,2013-03-28 03:00:00,
2013-03-28 04:01:00,53.3,48.9,29.79,ENE,66,4.0,5.0,85,0.00,,,0.00,VWS V14.01,2013-03-28 03:01:00,
2013-03-28 04:05:00,53.4,49.0,29.79,ENE,76,2.0,8.0,85,0.00,,,0.00,VWS V14.01,2013-03-28 03:05:00,
2013-03-28 04:10:00,53.4,49.0,29.79,ENE,76,0.0,3.0,85,0.00,,,0.00,VWS V14.01,2013-03-28 03:10:00,
2013-03-28 04:15:00,53.4,49.0,29.79,ENE,76,0.0,3.0,85,0.00,,,0.00,VWS V14.01,2013-03-28 03:15:00,
2013-03-28 04:20:00,53.4,49.0,29.79,ENE,76,0.0,0.0,85,0.00,,,0.00,VWS V14.01,2013-03-28 03:20:00,
2013-03-28 04:25:00,53.3,48.9,29.79,ENE,77,0.0,0.0,85,0.00,,,0.00,VWS V14.01,2013-03-28 03:25:00,
2013-03-28 04:30:00,53.3,48.9,29.79,ENE,76,0.0,1.0,85,0.00,,,0.00,VWS V14.01,2013-03-28 03:30:00,
2013-03-28 04:35:00,53.1,48.7,29.79,ENE,76,0.0,1.0,85,0.00,,,0.00,VWS V14.01,2013-03-28 03:35:00,
2013-03-28 04:40:00,53.0,48.9,29.79,ENE,76,0.0,0.0,86,0.00,,,0.00,VWS V14.01,2013-03-28 03:40:00,
2013-03-28 04:45:00,52.9,48.8,29.79,ENE,76,1.0,1.0,86,0.00,,,0.00,VWS V14.01,2013-03-28 03:45:00,
2013-03-28 04:50:00,52.6,48.8,29.79,ENE,76,2.0,4.0,87,0.00,,,0.00,VWS V14.01,2013-03-28 03:50:00,
2013-03-28 04:55:00,52.6,48.8,29.79,ENE,76,1.0,4.0,87,0.00,,,0.00,VWS V14.01,2013-03-28 03:55:00,
2013-03-28 05:00:00,52.6,49.2,29.79,ENE,76,2.0,3.0,88,0.00,,,0.00,VWS V14.01,2013-03-28 04:00:00,
2013-03-28 05:05:00,52.6,49.2,29.79,ENE,76,0.0,3.0,88,0.00,,,0.00,VWS V14.01,2013-03-28 04:05:00,
2013-03-28 05:10:00,52.5,49.0,29.79,ENE,76,2.0,4.0,88,0.00,,,0.00,VWS V14.01,2013-03-28 04:10:00,
2013-03-28 05:15:00,52.3,49.2,29.80,NE,51,4.0,7.0,89,0.00,,,0.00,VWS V14.01,2013-03-28 04:15:00,
2013-03-28 05:20:00,52.4,49.3,29.80,NE,39,5.0,7.0,89,0.00,,,0.00,VWS V14.01,2013-03-28 04:20:00,
2013-03-28 05:25:00,52.4,49.3,29.80,NE,38,4.0,7.0,89,0.00,,,0.00,VWS V14.01,2013-03-28 04:25:00,
2013-03-28 05:30:00,52.5,49.0,29.80,NE,37,4.0,7.0,88,0.00,,,0.00,VWS V14.01,2013-03-28 04:30:00,
2013-03-28 05:35:00,52.6,49.2,29.80,NE,37,4.0,7.0,88,0.00,,,0.00,VWS V14.01,2013-03-28 04:35:00,
2013-03-28 05:40:00,52.6,49.2,29.80,NE,37,5.0,5.0,88,0.00,,,0.00,VWS V14.01,2013-03-28 04:40:00,
2013-03-28 05:45:00,52.5,49.0,29.81,NE,37,4.0,6.0,88,0.00,,,0.00,VWS V14.01,2013-03-28 04:45:00,
2013-03-28 05:50:00,52.5,49.0,29.80,NE,37,3.0,4.0,88,0.00,,,0.00,VWS V14.01,2013-03-28 04:50:00,
2013-03-28 05:55:00,52.5,49.0,29.81,NE,37,2.0,4.0,88,0.00,,,0.00,VWS V14.01,2013-03-28 04:55:00,
2013-03-28 06:00:00,52.5,49.0,29.81,NE,37,2.0,3.0,88,0.00,,,0.00,VWS V14.01,2013-03-28 05:00:00,
2013-03-28 06:05:00,52.5,49.0,29.81,NE,37,0.0,3.0,88,0.00,,,0.00,VWS V14.01,2013-03-28 05:05:00,
2013-03-28 06:10:00,52.6,49.2,29.81,NE,37,0.0,0.0,88,0.00,,,0.00,VWS V14.01,2013-03-28 05:10:00,
2013-03-28 06:15:00,52.6,49.2,29.81,NE,37,0.0,0.0,88,0.00,,,0.00,VWS V14.01,2013-03-28 05:15:00,
2013-03-28 06:20:00,52.9,49.5,29.81,NE,37,0.0,0.0,88,0.00,,,0.00,VWS V14.01,2013-03-28 05:20:00,
2013-03-28 06:25:00,53.1,49.7,29.81,NE,37,0.0,0.0,88,0.00,,,0.00,VWS V14.01,2013-03-28 05:25:00,
2013-03-28 06:30:00,53.3,49.8,29.81,NE,37,0.0,0.0,88,0.00,,,0.00,VWS V14.01,2013-03-28 05:30:00,
2013-03-28 06:35:00,53.4,49.9,29.81,NE,37,3.0,4.0,88,0.00,,,0.00,VWS V14.01,2013-03-28 05:35:00,
2013-03-28 06:40:00,53.7,49.9,29.80,East,84,3.0,8.0,87,0.00,,,0.00,VWS V14.01,2013-03-28 05:40:00,
2013-03-28 06:45:00,53.9,49.8,29.81,East,93,2.0,8.0,86,0.00,,,0.00,VWS V14.01,2013-03-28 05:45:00,
2013-03-28 06:50:00,54.1,49.7,29.81,East,94,5.0,8.0,85,0.00,,,0.00,VWS V14.01,2013-03-28 05:50:00,
2013-03-28 06:55:00,54.2,49.8,29.81,East,92,3.0,8.0,85,0.00,,,0.00,VWS V14.01,2013-03-28 05:55:00,
2013-03-28 07:00:00,54.4,49.7,29.81,East,94,0.0,6.0,84,0.00,,,0.00,VWS V14.01,2013-03-28 06:00:00,
2013-03-28 07:05:00,54.7,50.0,29.81,East,94,0.0,6.0,84,0.00,,,0.00,VWS V14.01,2013-03-28 06:05:00,
2013-03-28 07:10:00,54.8,49.7,29.82,East,97,0.0,6.0,83,0.00,,,0.00,VWS V14.01,2013-03-28 06:10:00,
2013-03-28 07:15:00,54.9,49.8,29.82,East,97,3.0,6.0,83,0.00,,,0.00,VWS V14.01,2013-03-28 06:15:00,
2013-03-28 07:20:00,55.0,49.9,29.82,East,97,0.0,1.0,83,0.00,,,0.00,VWS V14.01,2013-03-28 06:20:00,
2013-03-28 07:25:00,55.1,49.7,29.82,East,98,2.0,6.0,82,0.00,,,0.00,VWS V14.01,2013-03-28 06:25:00,
2013-03-28 07:30:00,55.2,49.8,29.82,East,98,1.0,3.0,82,0.00,,,0.00,VWS V14.01,2013-03-28 06:30:00,
2013-03-28 07:35:00,55.3,49.9,29.83,East,98,2.0,3.0,82,0.00,,,0.00,VWS V14.01,2013-03-28 06:35:00,
2013-03-28 07:40:00,55.2,49.5,29.83,SE,146,5.0,5.0,81,0.00,,,0.00,VWS V14.01,2013-03-28 06:40:00,
2013-03-28 07:45:00,55.2,49.5,29.83,SSE,154,0.0,5.0,81,0.00,,,0.00,VWS V14.01,2013-03-28 06:45:00,
2013-03-28 07:50:00,55.3,49.6,29.83,SSE,154,1.0,2.0,81,0.00,,,0.00,VWS V14.01,2013-03-28 06:50:00,
2013-03-28 07:55:00,55.3,49.6,29.83,SSE,154,3.0,4.0,81,0.00,,,0.00,VWS V14.01,2013-03-28 06:55:00,
2013-03-28 08:00:00,55.2,49.2,29.83,SSE,155,2.0,6.0,80,0.00,,,0.00,VWS V14.01,2013-03-28 07:00:00,
2013-03-28 08:05:00,55.2,49.5,29.83,SSE,150,5.0,6.0,81,0.00,,,0.00,VWS V14.01,2013-03-28 07:05:00,
2013-03-28 08:10:00,55.2,49.5,29.83,SSE,150,0.0,4.0,81,0.00,,,0.00,VWS V14.01,2013-03-28 07:10:00,
2013-03-28 08:15:00,55.2,49.5,29.83,SE,143,4.0,5.0,81,0.00,,,0.00,VWS V14.01,2013-03-28 07:15:00,
2013-03-28 08:20:00,55.2,49.8,29.83,SE,133,5.0,5.0,82,0.00,,,0.00,VWS V14.01,2013-03-28 07:20:00,
2013-03-28 08:25:00,55.2,49.8,29.83,SE,132,4.0,5.0,82,0.00,,,0.00,VWS V14.01,2013-03-28 07:25:00,
2013-03-28 08:30:00,55.2,49.8,29.83,ESE,118,7.0,7.0,82,0.00,,,0.00,VWS V14.01,2013-03-28 07:30:00,
2013-03-28 08:35:00,55.2,50.1,29.83,ESE,110,5.0,8.0,83,0.00,,,0.00,VWS V14.01,2013-03-28 07:35:00,
2013-03-28 08:40:00,55.4,50.3,29.83,ENE,74,5.0,8.0,83,0.00,,,0.00,VWS V14.01,2013-03-28 07:40:00,
2013-03-28 08:45:00,55.5,50.4,29.83,ENE,78,4.0,10.0,83,0.00,,,0.00,VWS V14.01,2013-03-28 07:45:00,
2013-03-28 08:50:00,55.7,50.6,29.83,ENE,67,5.0,9.0,83,0.00,,,0.00,VWS V14.01,2013-03-28 07:50:00,
2013-03-28 08:55:00,56.0,50.9,29.83,ESE,103,4.0,10.0,83,0.00,,,0.00,VWS V14.01,2013-03-28 07:55:00,
2013-03-28 09:00:00,56.4,51.3,29.83,ENE,76,3.0,9.0,83,0.00,,,0.00,VWS V14.01,2013-03-28 08:00:00,
2013-03-28 09:05:00,57.0,51.9,29.83,ESE,110,8.0,9.0,83,0.00,,,0.00,VWS V14.01,2013-03-28 08:05:00,
2013-03-28 09:10:00,56.8,51.7,29.84,SE,132,6.0,9.0,83,0.00,,,0.00,VWS V14.01,2013-03-28 08:10:00,
2013-03-28 09:15:00,57.2,52.1,29.84,South,182,4.0,9.0,83,0.00,,,0.00,VWS V14.01,2013-03-28 08:15:00,
2013-03-28 09:20:00,57.5,52.4,29.84,SSE,152,5.0,6.0,83,0.00,,,0.00,VWS V14.01,2013-03-28 08:20:00,
2013-03-28 09:25:00,57.6,52.5,29.85,SSE,153,0.0,6.0,83,0.00,,,0.00,VWS V14.01,2013-03-28 08:25:00,
2013-03-28 09:30:00,57.5,52.4,29.84,SSE,148,8.0,8.0,83,0.00,,,0.00,VWS V14.01,2013-03-28 08:30:00,
2013-03-28 09:35:00,57.6,52.8,29.85,South,172,4.0,11.0,84,0.00,,,0.00,VWS V14.01,2013-03-28 08:35:00,
2013-03-28 09:40:00,57.5,52.7,29.85,SSE,153,5.0,8.0,84,0.00,,,0.00,VWS V14.01,2013-03-28 08:40:00,
2013-03-28 09:45:00,57.5,52.7,29.85,SE,126,6.0,10.0,84,0.00,,,0.00,VWS V14.01,2013-03-28 08:45:00,
2013-03-28 09:50:00,57.4,52.6,29.85,SE,146,7.0,10.0,84,0.00,,,0.00,VWS V14.01,2013-03-28 08:50:00,
2013-03-28 09:55:00,57.3,52.5,29.85,SSE,157,1.0,10.0,84,0.00,,,0.00,VWS V14.01,2013-03-28 08:55:00,
2013-03-28 10:00:00,57.4,52.6,29.85,SSE,157,6.0,9.0,84,0.00,,,0.00,VWS V14.01,2013-03-28 09:00:00,
2013-03-28 10:05:00,57.4,52.6,29.85,SSE,161,4.0,9.0,84,0.00,,,0.00,VWS V14.01,2013-03-28 09:05:00,
2013-03-28 10:10:00,57.5,52.7,29.85,SE,146,3.0,5.0,84,0.00,,,0.00,VWS V14.01,2013-03-28 09:10:00,
2013-03-28 10:15:00,57.7,52.9,29.86,SE,142,2.0,7.0,84,0.00,,,0.00,VWS V14.01,2013-03-28 09:15:00,
2013-03-28 10:20:00,57.5,52.4,29.86,SE,138,8.0,10.0,83,0.00,,,0.00,VWS V14.01,2013-03-28 09:20:00,
2013-03-28 10:25:00,57.5,52.4,29.86,SSE,153,5.0,11.0,83,0.00,,,0.00,VWS V14.01,2013-03-28 09:25:00,
2013-03-28 10:30:00,57.4,52.6,29.86,SSE,165,5.0,9.0,84,0.00,,,0.00,VWS V14.01,2013-03-28 09:30:00,
2013-03-28 10:35:00,57.4,52.6,29.86,SE,146,7.0,9.0,84,0.00,,,0.00,VWS V14.01,2013-03-28 09:35:00,
2013-03-28 10:40:00,57.3,52.5,29.86,SE,144,3.0,9.0,84,0.00,,,0.00,VWS V14.01,2013-03-28 09:40:00,
2013-03-28 10:45:00,57.4,52.6,29.86,SE,136,5.0,9.0,84,0.00,,,0.00,VWS V14.01,2013-03-28 09:45:00,
2013-03-28 10:50:00,57.2,52.4,29.86,SE,144,7.0,13.0,84,0.00,,,0.00,VWS V14.01,2013-03-28 09:50:00,
2013-03-28 10:55:00,57.2,52.7,29.87,SSE,157,7.0,13.0,85,0.00,,,0.00,VWS V14.01,2013-03-28 09:55:00,
2013-03-28 11:00:00,57.2,52.7,29.87,South,171,6.0,10.0,85,0.00,,,0.00,VWS V14.01,2013-03-28 10:00:00,
2013-03-28 11:05:00,57.4,53.2,29.87,SE,136,9.0,10.0,86,0.00,,,0.00,VWS V14.01,2013-03-28 10:05:00,
2013-03-28 11:10:00,57.5,53.3,29.87,SE,138,9.0,9.0,86,0.00,,,0.00,VWS V14.01,2013-03-28 10:10:00,
2013-03-28 11:15:00,57.6,53.8,29.86,SE,146,11.0,11.0,87,0.00,,,0.00,VWS V14.01,2013-03-28 10:15:00,
2013-03-28 11:20:00,57.6,54.1,29.86,SE,126,6.0,13.0,88,0.00,,,0.00,VWS V14.01,2013-03-28 10:20:00,
2013-03-28 11:25:00,57.7,54.2,29.87,SSE,152,9.0,13.0,88,0.00,,,0.00,VWS V14.01,2013-03-28 10:25:00,
2013-03-28 11:30:00,57.7,54.2,29.87,SSE,153,13.0,13.0,88,0.00,,,0.00,VWS V14.01,2013-03-28 10:30:00,
2013-03-28 11:35:00,58.0,54.5,29.86,South,186,3.0,13.0,88,0.00,,,0.00,VWS V14.01,2013-03-28 10:35:00,
2013-03-28 11:40:00,58.4,54.9,29.86,SE,135,9.0,9.0,88,0.00,,,0.00,VWS V14.01,2013-03-28 10:40:00,
2013-03-28 11:45:00,58.7,55.2,29.86,SE,128,6.0,9.0,88,0.00,,,0.00,VWS V14.01,2013-03-28 10:45:00,
2013-03-28 11:50:00,58.7,55.2,29.87,SSE,151,9.0,10.0,88,0.00,,,0.00,VWS V14.01,2013-03-28 10:50:00,
2013-03-28 11:54:00,58.6,55.1,29.87,South,178,8.0,12.0,88,0.00,,,0.00,VWS V14.01,2013-03-28 10:54:00,
2013-03-28 11:59:00,58.5,55.0,29.87,South,169,5.0,10.0,88,0.00,,,0.00,VWS V14.01,2013-03-28 10:59:00,
2013-03-28 12:00:00,58.3,55.4,29.86,SSE,154,2.0,13.0,90,0.00,,,0.00,VWS V14.01,2013-03-28 11:00:00,
2013-03-28 12:04:00,58.5,55.0,29.87,SSE,155,9.0,13.0,88,0.00,,,0.00,VWS V14.01,2013-03-28 11:04:00,
2013-03-28 12:10:00,58.3,54.8,29.87,South,171,2.0,12.0,88,0.00,,,0.00,VWS V14.01,2013-03-28 11:10:00,
2013-03-28 12:15:00,58.1,54.6,29.87,South,169,4.0,15.0,88,0.00,,,0.00,VWS V14.01,2013-03-28 11:15:00,
2013-03-28 12:20:00,58.0,54.8,29.87,SSE,163,8.0,12.0,89,0.00,,,0.00,VWS V14.01,2013-03-28 11:20:00,
2013-03-28 12:25:00,58.0,54.8,29.87,South,169,3.0,12.0,89,0.00,,,0.00,VWS V14.01,2013-03-28 11:25:00,
2013-03-28 12:30:00,57.9,54.7,29.87,SE,142,8.0,11.0,89,0.00,,,0.00,VWS V14.01,2013-03-28 11:30:00,
2013-03-28 12:35:00,57.9,54.7,29.87,SSE,149,5.0,13.0,89,0.00,,,0.00,VWS V14.01,2013-03-28 11:35:00,
2013-03-28 12:40:00,58.1,54.9,29.87,SSE,155,5.0,11.0,89,0.00,,,0.00,VWS V14.01,2013-03-28 11:40:00,
2013-03-28 12:45:00,58.3,55.4,29.87,SSE,160,10.0,11.0,90,0.00,,,0.00,VWS V14.01,2013-03-28 11:45:00,
2013-03-28 12:50:00,58.2,55.0,29.87,SSE,158,9.0,11.0,89,0.00,,,0.00,VWS V14.01,2013-03-28 11:50:00,
2013-03-28 12:55:00,58.1,54.9,29.86,SSE,167,5.0,11.0,89,0.00,,,0.00,VWS V14.01,2013-03-28 11:55:00,
2013-03-28 13:00:00,58.2,55.3,29.86,SE,144,13.0,13.0,90,0.00,,,0.00,VWS V14.01,2013-03-28 12:00:00,
2013-03-28 13:05:00,58.2,55.3,29.86,SE,137,8.0,13.0,90,0.00,,,0.00,VWS V14.01,2013-03-28 12:05:00,
2013-03-28 13:10:00,58.7,55.8,29.86,SSE,151,5.0,11.0,90,0.00,,,0.00,VWS V14.01,2013-03-28 12:10:00,
2013-03-28 13:15:00,58.9,55.7,29.86,SE,132,2.0,11.0,89,0.00,,,0.00,VWS V14.01,2013-03-28 12:15:00,
2013-03-28 13:20:00,58.8,55.6,29.86,SSE,150,10.0,14.0,89,0.00,,,0.00,VWS V14.01,2013-03-28 12:20:00,
2013-03-28 13:25:00,58.7,55.5,29.86,South,180,7.0,14.0,89,0.00,,,0.00,VWS V14.01,2013-03-28 12:25:00,
2013-03-28 13:30:00,58.7,55.5,29.86,SSW,211,7.0,12.0,89,0.00,,,0.00,VWS V14.01,2013-03-28 12:30:00,
2013-03-28 13:35:00,58.6,55.7,29.86,SSW,196,5.0,13.0,90,0.00,,,0.00,VWS V14.01,2013-03-28 12:35:00,
2013-03-28 13:40:00,58.5,55.6,29.86,SSE,157,9.0,12.0,90,0.00,,,0.00,VWS V14.01,2013-03-28 12:40:00,
2013-03-28 13:45:00,58.4,55.5,29.86,SSW,204,7.0,12.0,90,0.00,,,0.00,VWS V14.01,2013-03-28 12:45:00,
2013-03-28 13:50:00,58.2,55.3,29.86,South,190,11.0,14.0,90,0.00,,,0.00,VWS V14.01,2013-03-28 12:50:00,
2013-03-28 13:55:00,58.4,55.5,29.86,South,182,9.0,14.0,90,0.00,,,0.00,VWS V14.01,2013-03-28 12:55:00,
2013-03-28 14:00:00,58.4,55.5,29.85,South,188,10.0,12.0,90,0.00,,,0.00,VWS V14.01,2013-03-28 13:00:00,
2013-03-28 14:05:00,58.4,55.5,29.86,South,173,5.0,12.0,90,0.00,,,0.00,VWS V14.01,2013-03-28 13:05:00,
2013-03-28 14:10:00,58.4,55.8,29.86,South,178,7.0,9.0,91,0.00,,,0.00,VWS V14.01,2013-03-28 13:10:00,
2013-03-28 14:15:00,58.3,55.7,29.86,South,180,9.0,11.0,91,0.00,,,0.00,VWS V14.01,2013-03-28 13:15:00,
2013-03-28 14:20:00,58.1,55.5,29.86,South,174,8.0,14.0,91,0.00,,,0.00,VWS V14.01,2013-03-28 13:20:00,
2013-03-28 14:25:00,58.0,55.4,29.85,SSW,202,7.0,14.0,91,0.00,,,0.00,VWS V14.01,2013-03-28 13:25:00,
2013-03-28 14:30:00,57.9,55.3,29.85,South,179,11.0,12.0,91,0.00,,,0.00,VWS V14.01,2013-03-28 13:30:00,
2013-03-28 14:35:00,57.9,55.3,29.85,SSE,155,7.0,12.0,91,0.00,,,0.00,VWS V14.01,2013-03-28 13:35:00,
2013-03-28 14:40:00,58.0,55.7,29.86,SSW,196,2.0,9.0,92,0.00,,,0.00,VWS V14.01,2013-03-28 13:40:00,
2013-03-28 14:45:00,58.3,55.7,29.85,South,182,9.0,9.0,91,0.00,,,0.00,VWS V14.01,2013-03-28 13:45:00,
2013-03-28 14:50:00,58.4,55.8,29.85,South,189,5.0,11.0,91,0.00,,,0.00,VWS V14.01,2013-03-28 13:50:00,
2013-03-28 14:55:00,58.4,55.8,29.85,South,177,9.0,11.0,91,0.00,,,0.00,VWS V14.01,2013-03-28 13:55:00,
2013-03-28 15:00:00,58.3,55.7,29.86,South,180,5.0,12.0,91,0.00,,,0.00,VWS V14.01,2013-03-28 14:00:00,
2013-03-28 15:05:00,58.6,56.0,29.85,SSE,158,7.0,12.0,91,0.00,,,0.00,VWS V14.01,2013-03-28 14:05:00,
2013-03-28 15:10:00,58.5,55.9,29.86,South,171,7.0,9.0,91,0.00,,,0.00,VWS V14.01,2013-03-28 14:10:00,
2013-03-28 15:15:00,58.5,55.9,29.86,South,173,5.0,9.0,91,0.00,,,0.00,VWS V14.01,2013-03-28 14:15:00,
2013-03-28 15:20:00,58.5,55.9,29.85,South,177,4.0,9.0,91,0.00,,,0.00,VWS V14.01,2013-03-28 14:20:00,
2013-03-28 15:25:00,58.5,55.9,29.85,South,170,3.0,10.0,91,0.00,,,0.00,VWS V14.01,2013-03-28 14:25:00,
2013-03-28 15:30:00,58.6,55.7,29.85,SSW,192,6.0,12.0,90,0.00,,,0.00,VWS V14.01,2013-03-28 14:30:00,
2013-03-28 15:35:00,58.3,55.4,29.86,South,189,9.0,14.0,90,0.00,,,0.00,VWS V14.01,2013-03-28 14:35:00,
2013-03-28 15:40:00,58.3,55.4,29.86,South,185,5.0,10.0,90,0.00,,,0.00,VWS V14.01,2013-03-28 14:40:00,
2013-03-28 15:45:00,58.2,55.6,29.86,SW,223,3.0,14.0,91,0.00,,,0.00,VWS V14.01,2013-03-28 14:45:00,
2013-03-28 15:50:00,58.4,55.8,29.86,South,185,7.0,9.0,91,0.00,,,0.00,VWS V14.01,2013-03-28 14:50:00,
2013-03-28 15:55:00,58.3,55.7,29.86,South,188,7.0,10.0,91,0.00,,,0.00,VWS V14.01,2013-03-28 14:55:00,
2013-03-28 16:00:00,58.0,55.4,29.86,South,180,10.0,12.0,91,0.00,,,0.00,VWS V14.01,2013-03-28 15:00:00,
2013-03-28 16:05:00,58.0,55.7,29.86,SSW,212,4.0,12.0,92,0.00,,,0.00,VWS V14.01,2013-03-28 15:05:00,
2013-03-28 16:10:00,57.8,55.2,29.86,South,189,6.0,8.0,91,0.00,,,0.00,VWS V14.01,2013-03-28 15:10:00,
2013-03-28 16:15:00,58.0,55.7,29.86,SSW,202,4.0,8.0,92,0.00,,,0.00,VWS V14.01,2013-03-28 15:15:00,
2013-03-28 16:20:00,57.7,55.4,29.86,SW,214,10.0,10.0,92,0.00,,,0.00,VWS V14.01,2013-03-28 15:20:00,
2013-03-28 16:25:00,57.6,55.0,29.86,SSW,195,6.0,10.0,91,0.00,,,0.00,VWS V14.01,2013-03-28 15:25:00,
2013-03-28 16:30:00,57.7,55.4,29.86,South,190,6.0,9.0,92,0.00,,,0.00,VWS V14.01,2013-03-28 15:30:00,
2013-03-28 16:35:00,57.9,55.6,29.86,South,189,5.0,9.0,92,0.00,,,0.00,VWS V14.01,2013-03-28 15:35:00,
2013-03-28 16:40:00,58.0,55.7,29.87,South,174,7.0,8.0,92,0.00,,,0.00,VWS V14.01,2013-03-28 15:40:00,
2013-03-28 16:45:00,57.9,55.6,29.86,SSW,192,5.0,8.0,92,0.00,,,0.00,VWS V14.01,2013-03-28 15:45:00,
2013-03-28 16:50:00,58.0,55.7,29.86,South,175,3.0,6.0,92,0.00,,,0.00,VWS V14.01,2013-03-28 15:50:00,
2013-03-28 16:55:00,58.1,55.8,29.86,SSW,202,5.0,8.0,92,0.00,,,0.00,VWS V14.01,2013-03-28 15:55:00,
2013-03-28 17:00:00,58.1,55.8,29.86,SSW,208,7.0,8.0,92,0.00,,,0.00,VWS V14.01,2013-03-28 16:00:00,
2013-03-28 17:05:00,57.9,55.6,29.86,SSW,202,4.0,8.0,92,0.00,,,0.00,VWS V14.01,2013-03-28 16:05:00,
2013-03-28 17:10:00,57.8,55.5,29.86,South,191,7.0,9.0,92,0.00,,,0.00,VWS V14.01,2013-03-28 16:10:00,
2013-03-28 17:15:00,57.8,55.5,29.86,SSW,192,7.0,10.0,92,0.00,,,0.00,VWS V14.01,2013-03-28 16:15:00,
2013-03-28 17:20:00,57.8,55.5,29.86,South,175,3.0,11.0,92,0.00,,,0.00,VWS V14.01,2013-03-28 16:20:00,
2013-03-28 17:25:00,57.9,55.6,29.86,South,185,4.0,11.0,92,0.00,,,0.00,VWS V14.01,2013-03-28 16:25:00,
2013-03-28 17:30:00,57.7,55.4,29.87,SSE,168,4.0,10.0,92,0.00,,,0.00,VWS V14.01,2013-03-28 16:30:00,
2013-03-28 17:35:00,57.7,55.4,29.87,SSW,209,7.0,10.0,92,0.00,,,0.00,VWS V14.01,2013-03-28 16:35:00,
2013-03-28 17:40:00,57.6,55.3,29.87,SSW,198,4.0,9.0,92,0.00,,,0.00,VWS V14.01,2013-03-28 16:40:00,
2013-03-28 17:45:00,57.6,55.3,29.87,South,189,5.0,9.0,92,0.00,,,0.00,VWS V14.01,2013-03-28 16:45:00,
2013-03-28 17:50:00,57.6,55.3,29.87,South,170,8.0,8.0,92,0.00,,,0.00,VWS V14.01,2013-03-28 16:50:00,
2013-03-28 17:55:00,57.6,55.3,29.87,SSW,195,6.0,9.0,92,0.00,,,0.00,VWS V14.01,2013-03-28 16:55:00,
2013-03-28 18:00:00,57.6,55.3,29.87,South,182,4.0,7.0,92,0.00,,,0.00,VWS V14.01,2013-03-28 17:00:00,
2013-03-28 18:05:00,57.6,55.3,29.87,SSW,202,3.0,7.0,92,0.00,,,0.00,VWS V14.01,2013-03-28 17:05:00,
2013-03-28 18:10:00,57.6,55.3,29.87,SSW,197,6.0,7.0,92,0.00,,,0.00,VWS V14.01,2013-03-28 17:10:00,
2013-03-28 18:15:00,57.5,55.2,29.87,South,185,4.0,9.0,92,0.00,,,0.00,VWS V14.01,2013-03-28 17:15:00,
2013-03-28 18:20:00,57.5,55.2,29.87,South,190,3.0,6.0,92,0.00,,,0.00,VWS V14.01,2013-03-28 17:20:00,
2013-03-28 18:25:00,57.6,55.3,29.87,South,174,2.0,7.0,92,0.00,,,0.00,VWS V14.01,2013-03-28 17:25:00,
2013-03-28 18:30:00,57.5,55.2,29.87,SSW,192,2.0,8.0,92,0.00,,,0.00,VWS V14.01,2013-03-28 17:30:00,
2013-03-28 18:35:00,57.5,55.2,29.87,South,191,5.0,8.0,92,0.00,,,0.00,VWS V14.01,2013-03-28 17:35:00,
2013-03-28 18:40:00,57.4,55.1,29.87,SSW,192,0.0,7.0,92,0.00,,,0.00,VWS V14.01,2013-03-28 17:40:00,
2013-03-28 18:45:00,57.4,55.1,29.87,SSW,201,2.0,7.0,92,0.00,,,0.00,VWS V14.01,2013-03-28 17:45:00,
2013-03-28 18:50:00,57.4,55.1,29.87,SSW,197,4.0,8.0,92,0.00,,,0.00,VWS V14.01,2013-03-28 17:50:00,
2013-03-28 18:55:00,57.4,55.1,29.87,SSW,204,5.0,11.0,92,0.00,,,0.00,VWS V14.01,2013-03-28 17:55:00,
2013-03-28 19:00:00,57.5,55.2,29.87,South,182,1.0,8.0,92,0.00,,,0.00,VWS V14.01,2013-03-28 18:00:00,
2013-03-28 19:05:00,57.4,55.1,29.87,South,181,1.0,8.0,92,0.00,,,0.00,VWS V14.01,2013-03-28 18:05:00,
2013-03-28 19:10:00,57.4,55.1,29.87,South,188,5.0,7.0,92,0.00,,,0.00,VWS V14.01,2013-03-28 18:10:00,
2013-03-28 19:15:00,57.4,55.1,29.87,SSW,192,0.0,7.0,92,0.00,,,0.00,VWS V14.01,2013-03-28 18:15:00,
2013-03-28 19:20:00,57.4,55.1,29.87,SSW,192,0.0,4.0,92,0.00,,,0.00,VWS V14.01,2013-03-28 18:20:00,
2013-03-28 19:25:00,57.4,55.1,29.87,SSW,192,0.0,4.0,92,0.00,,,0.00,VWS V14.01,2013-03-28 18:25:00,
2013-03-28 19:30:00,57.3,55.0,29.87,SSW,192,0.0,0.0,92,0.00,,,0.00,VWS V14.01,2013-03-28 18:30:00,
2013-03-28 19:35:00,57.3,55.0,29.87,SSW,192,0.0,0.0,92,0.00,,,0.00,VWS V14.01,2013-03-28 18:35:00,
2013-03-28 19:40:00,57.2,54.9,29.87,SSW,192,3.0,4.0,92,0.00,,,0.00,VWS V14.01,2013-03-28 18:40:00,
2013-03-28 19:45:00,57.3,55.0,29.88,SSW,192,3.0,4.0,92,0.00,,,0.00,VWS V14.01,2013-03-28 18:45:00,
2013-03-28 19:50:00,57.3,55.0,29.88,SSW,192,0.0,3.0,92,0.00,,,0.00,VWS V14.01,2013-03-28 18:50:00,
2013-03-28 19:55:00,57.2,54.9,29.88,SSW,192,0.0,3.0,92,0.00,,,0.00,VWS V14.01,2013-03-28 18:55:00,
2013-03-28 20:00:00,57.4,55.1,29.88,SSW,192,2.0,4.0,92,0.00,,,0.00,VWS V14.01,2013-03-28 19:00:00,
2013-03-28 20:05:00,57.3,55.0,29.88,SSW,192,3.0,4.0,92,0.00,,,0.00,VWS V14.01,2013-03-28 19:05:00,
2013-03-28 20:10:00,57.3,55.0,29.88,SSW,192,1.0,3.0,92,0.00,,,0.00,VWS V14.01,2013-03-28 19:10:00,
2013-03-28 20:15:00,57.2,54.9,29.88,SSW,192,4.0,4.0,92,0.00,,,0.00,VWS V14.01,2013-03-28 19:15:00,
2013-03-28 20:20:00,57.2,54.9,29.89,SSW,192,0.0,4.0,92,0.00,,,0.00,VWS V14.01,2013-03-28 19:20:00,
2013-03-28 20:25:00,57.2,54.9,29.89,SSW,192,2.0,5.0,92,0.00,,,0.00,VWS V14.01,2013-03-28 19:25:00,
2013-03-28 20:30:00,57.1,54.8,29.89,SSW,192,3.0,4.0,92,0.00,,,0.00,VWS V14.01,2013-03-28 19:30:00,
2013-03-28 20:35:00,57.1,54.8,29.89,SSW,192,3.0,4.0,92,0.00,,,0.00,VWS V14.01,2013-03-28 19:35:00,
2013-03-28 20:40:00,57.1,54.8,29.88,SSW,192,2.0,3.0,92,0.00,,,0.00,VWS V14.01,2013-03-28 19:40:00,
2013-03-28 20:45:00,57.0,54.7,29.88,SSW,192,1.0,4.0,92,0.00,,,0.00,VWS V14.01,2013-03-28 19:45:00,
2013-03-28 20:50:00,57.0,54.7,29.88,SSW,192,2.0,4.0,92,0.00,,,0.00,VWS V14.01,2013-03-28 19:50:00,
2013-03-28 20:55:00,57.0,54.7,29.88,SSW,192,0.0,4.0,92,0.00,,,0.00,VWS V14.01,2013-03-28 19:55:00,
2013-03-28 21:00:00,57.0,54.7,29.88,SSW,192,4.0,5.0,92,0.00,,,0.00,VWS V14.01,2013-03-28 20:00:00,
2013-03-28 21:05:00,57.1,54.8,29.88,SSW,192,3.0,5.0,92,0.00,,,0.00,VWS V14.01,2013-03-28 20:05:00,
2013-03-28 21:10:00,57.1,54.5,29.88,SSW,192,0.0,4.0,91,0.00,,,0.00,VWS V14.01,2013-03-28 20:10:00,
2013-03-28 21:15:00,57.1,54.5,29.88,SSW,192,1.0,4.0,91,0.00,,,0.00,VWS V14.01,2013-03-28 20:15:00,
2013-03-28 21:20:00,57.1,54.5,29.88,SSW,192,0.0,0.0,91,0.00,,,0.00,VWS V14.01,2013-03-28 20:20:00,
2013-03-28 21:25:00,57.2,54.6,29.88,SSW,192,0.0,0.0,91,0.00,,,0.00,VWS V14.01,2013-03-28 20:25:00,
2013-03-28 21:30:00,57.1,54.5,29.88,SSW,192,0.0,0.0,91,0.00,,,0.00,VWS V14.01,2013-03-28 20:30:00,
2013-03-28 21:35:00,57.2,54.6,29.89,SSW,192,0.0,3.0,91,0.00,,,0.00,VWS V14.01,2013-03-28 20:35:00,
2013-03-28 21:40:00,57.2,54.6,29.88,SSW,192,0.0,0.0,91,0.00,,,0.00,VWS V14.01,2013-03-28 20:40:00,
2013-03-28 21:45:00,57.1,54.5,29.88,SSW,192,0.0,0.0,91,0.00,,,0.00,VWS V14.01,2013-03-28 20:45:00,
2013-03-28 21:50:00,57.1,54.5,29.89,SSW,192,0.0,0.0,91,0.00,,,0.00,VWS V14.01,2013-03-28 20:50:00,
2013-03-28 21:55:00,57.0,54.4,29.89,SSW,192,0.0,1.0,91,0.00,,,0.00,VWS V14.01,2013-03-28 20:55:00,
2013-03-28 22:00:00,57.0,54.4,29.88,SSW,192,0.0,0.0,91,0.00,,,0.00,VWS V14.01,2013-03-28 21:00:00,
2013-03-28 22:05:00,56.9,54.3,29.88,SSW,192,0.0,2.0,91,0.00,,,0.00,VWS V14.01,2013-03-28 21:05:00,
2013-03-28 22:10:00,56.8,54.2,29.88,SSW,192,0.0,0.0,91,0.00,,,0.00,VWS V14.01,2013-03-28 21:10:00,
2013-03-28 22:15:00,56.8,54.2,29.88,SSW,192,1.0,1.0,91,0.00,,,0.00,VWS V14.01,2013-03-28 21:15:00,
2013-03-28 22:20:00,56.8,54.2,29.88,SSW,192,0.0,1.0,91,0.00,,,0.00,VWS V14.01,2013-03-28 21:20:00,
2013-03-28 22:25:00,56.8,54.2,29.89,SSW,192,1.0,1.0,91,0.00,,,0.00,VWS V14.01,2013-03-28 21:25:00,
2013-03-28 22:30:00,56.8,54.2,29.88,SSW,192,2.0,3.0,91,0.00,,,0.00,VWS V14.01,2013-03-28 21:30:00,
2013-03-28 22:35:00,56.8,54.2,29.88,SSW,192,1.0,3.0,91,0.00,,,0.00,VWS V14.01,2013-03-28 21:35:00,
2013-03-28 22:40:00,56.9,54.3,29.88,SSW,192,1.0,3.0,91,0.01,,,0.01,VWS V14.01,2013-03-28 21:40:00,
2013-03-28 22:45:00,57.0,54.4,29.88,SW,227,0.0,4.0,91,0.01,,,0.01,VWS V14.01,2013-03-28 21:45:00,
2013-03-28 22:50:00,57.0,54.4,29.88,SW,227,3.0,3.0,91,0.01,,,0.01,VWS V14.01,2013-03-28 21:50:00,
2013-03-28 22:55:00,57.2,54.6,29.88,WSW,238,0.0,4.0,91,0.01,,,0.01,VWS V14.01,2013-03-28 21:55:00,
2013-03-28 23:00:00,57.2,54.6,29.89,WSW,238,3.0,5.0,91,0.01,,,0.01,VWS V14.01,2013-03-28 22:00:00,
2013-03-28 23:05:00,57.2,54.6,29.88,WSW,237,0.0,5.0,91,0.01,,,0.01,VWS V14.01,2013-03-28 22:05:00,
2013-03-28 23:10:00,57.2,54.6,29.88,WSW,237,1.0,3.0,91,0.01,,,0.01,VWS V14.01,2013-03-28 22:10:00,
2013-03-28 23:15:00,57.2,54.6,29.89,WSW,237,0.0,3.0,91,0.01,,,0.01,VWS V14.01,2013-03-28 22:15:00,
2013-03-28 23:20:00,57.2,54.6,29.88,WSW,237,0.0,1.0,91,0.01,,,0.01,VWS V14.01,2013-03-28 22:20:00,
2013-03-28 23:25:00,57.1,54.5,29.88,WSW,237,0.0,1.0,91,0.02,,,0.02,VWS V14.01,2013-03-28 22:25:00,
2013-03-28 23:30:00,57.1,54.5,29.88,WSW,237,0.0,0.0,91,0.02,,,0.02,VWS V14.01,2013-03-28 22:30:00,
2013-03-28 23:35:00,57.0,54.4,29.88,WSW,237,0.0,0.0,91,0.02,,,0.02,VWS V14.01,2013-03-28 22:35:00,
2013-03-28 23:40:00,56.9,54.3,29.88,WSW,237,0.0,0.0,91,0.01,,,0.02,VWS V14.01,2013-03-28 22:40:00,
2013-03-28 23:45:00,56.9,54.6,29.88,WSW,237,1.0,1.0,92,0.01,,,0.02,VWS V14.01,2013-03-28 22:45:00,
2013-03-28 23:50:00,56.8,54.5,29.88,WSW,237,0.0,1.0,92,0.01,,,0.02,VWS V14.01,2013-03-28 22:50:00,
2013-03-28 23:55:00,56.8,54.5,29.88,WSW,237,0.0,1.0,92,0.01,,,0.02,VWS V14.01,2013-03-28 22:55:00,